EST,Max TemperatureF,Mean TemperatureF,Min TemperatureF,Max Dew PointF,MeanDew PointF,Min DewpointF,Max Humidity, Mean Humidity, Min Humidity, Max Sea Level PressureIn, Mean Sea Level PressureIn, Min Sea Level PressureIn, Max VisibilityMiles, Mean VisibilityMiles, Min VisibilityMiles, Max Wind SpeedMPH, Mean Wind SpeedMPH, Max Gust SpeedMPH,PrecipitationIn, CloudCover, Events, WindDirDegrees
2012-12-1,61,44,27,42,34,25,94,78,48,30.32,30.26,30.20,10,10,7,9,2,,0.00,2,,192
2012-12-2,57,46,36,55,47,34,97,84,60,30.22,30.15,30.10,10,7,3,12,4,17,0.00,5,Rain,202
2012-12-3,67,56,45,57,53,44,97,88,69,30.21,30.16,30.13,10,8,0,9,3,,0.00,5,Fog-Rain,189
2012-12-4,62,52,43,57,50,40,96,85,72,30.19,30.12,30.03,10,10,7,22,4,33,0.00,6,Rain,206
2012-12-5,48,40,31,41,34,26,99,77,42,30.33,30.28,30.19,10,8,0,9,2,,0.00,0,Fog,345
2012-12-6,48,38,27,41,32,23,93,71,50,30.23,30.10,30.01,10,10,10,7,3,,0.00,3,Rain,85
2012-12-7,52,48,43,52,49,41,97,95,88,30.01,29.95,29.88,10,8,3,13,2,,0.00,8,Rain,191
2012-12-8,56,52,49,54,51,46,97,93,85,30.03,29.91,29.86,10,8,3,7,4,,0.00,8,Rain,219
2012-12-9,58,50,43,56,48,41,96,93,89,30.07,29.95,29.72,10,9,2,10,6,,0.00,8,Rain,103
2012-12-10,58,46,34,56,44,31,96,92,86,29.90,29.72,29.64,10,8,3,14,7,18,0.00,8,Rain-Thunderstorm,252
2012-12-11,36,32,27,31,28,23,95,82,60,30.25,30.08,29.89,10,9,7,10,5,,0.00,7,,255
2012-12-12,40,30,20,28,23,19,96,81,45,30.42,30.36,30.25,10,9,5,5,0,,0.00,0,,28
2012-12-13,46,32,18,29,22,16,94,78,39,30.42,30.36,30.29,10,10,10,4,0,,0.00,0,,199
2012-12-14,51,36,20,32,25,18,93,76,37,30.33,30.27,30.19,10,10,10,6,1,,0.00,0,,209
2012-12-15,50,40,29,39,33,27,94,76,51,30.20,30.03,29.86,10,10,10,7,1,,0.00,3,Rain,153
2012-12-16,59,54,50,51,47,38,86,75,57,29.85,29.77,29.70,10,10,10,10,6,16,0.00,5,,185
2012-12-17,54,50,45,52,49,44,95,92,86,29.75,29.67,29.55,10,10,4,12,5,18,0.00,7,Rain-Thunderstorm,204
2012-12-18,45,40,34,44,36,32,94,83,70,29.86,29.76,29.57,10,10,4,15,7,20,0.00,7,Rain,252
2012-12-19,43,38,33,36,34,32,94,82,68,30.13,30.00,29.79,10,9,4,10,4,,0.00,5,,235
2012-12-20,48,42,36,45,37,28,92,80,58,30.05,29.66,29.38,10,9,5,31,8,41,0.00,5,Rain,143
2012-12-21,35,32,28,28,25,24,90,80,70,29.91,29.65,29.51,10,6,1,31,21,39,0.00,8,Snow,254
2012-12-22,32,26,20,25,22,18,91,75,66,30.19,30.10,29.92,10,10,10,20,12,29,0.00,5,,257
2012-12-23,46,31,16,29,22,15,94,79,48,30.09,29.99,29.92,10,10,10,9,1,,0.00,0,,239
2012-12-24,39,31,23,39,30,22,98,95,88,29.97,29.86,29.76,10,6,0,7,1,,0.00,5,Fog-Rain,267
2012-12-25,39,36,32,38,31,28,95,88,80,30.17,30.10,29.94,10,7,3,14,5,17,0.00,8,,14
2012-12-26,37,34,31,35,32,28,96,90,79,30.06,29.70,29.50,10,8,2,18,12,30,0.00,8,Rain-Snow,40
2012-12-27,31,30,28,28,25,24,90,84,79,30.17,30.03,29.76,10,10,4,21,11,26,0.00,8,,284
2012-12-28,36,32,28,28,26,24,90,83,69,30.17,30.07,29.86,10,10,10,10,2,,0.00,5,,69
2012-12-29,32,30,28,31,29,25,97,91,86,30.09,29.82,29.66,10,4,0,16,6,22,0.00,8,Snow,291
2012-12-30,28,22,16,24,20,14,94,82,69,30.42,30.33,30.11,10,9,3,18,9,24,0.00,6,Snow,251
2012-12-31,33,24,15,28,22,14,93,82,70,30.36,30.20,30.07,10,10,5,10,2,,0.00,5,Snow,198